sensor_id;sensor_type;location;lat;lon;timestamp;pressure;altitude;pressure_sealevel;temperature;humidity
20156;BME280;10238;49.556;10.956;2024-03-23T00:53:59;97607.97;;;7.44;100.00
20156;BME280;10238;49.556;10.956;2024-03-23T00:56:45;97598.22;;;7.45;100.00
20156;BME280;10238;49.556;10.956;2024-03-23T00:59:31;97599.88;;;7.46;100.00
20156;BME280;10238;49.556;10.956;2024-03-23T01:02:17;97594.94;;;7.43;100.00
20156;BME280;10238;49.556;10.956;2024-03-23T01:05:04;97592.63;;;7.48;100.00
20156;BME280;10238;49.556;10.956;2024-03-23T01:07:51;97584.56;;;7.49;100.00
20156;BME280;10238;49.556;10.956;2024-03-23T01:10:38;97588.03;;;7.50;100.00
20156;BME280;10238;49.556;10.956;2024-03-23T01:13:26;97579.78;;;7.53;100.00
20156;BME280;10238;49.556;10.956;2024-03-23T01:16:11;97577.50;;;7.58;100.00
20156;BME280;10238;49.556;10.956;2024-03-23T01:18:58;97569.72;;;7.56;100.00
20156;BME280;10238;49.556;10.956;2024-03-23T01:21:44;97574.19;;;7.56;100.00
20156;BME280;10238;49.556;10.956;2024-03-23T01:24:31;97558.34;;;7.56;100.00
20156;BME280;10238;49.556;10.956;2024-03-23T01:27:18;97556.66;;;7.55;100.00
20156;BME280;10238;49.556;10.956;2024-03-23T01:30:07;97542.47;;;7.56;100.00
20156;BME280;10238;49.556;10.956;2024-03-23T01:32:53;97548.41;;;7.58;100.00
20156;BME280;10238;49.556;10.956;2024-03-23T01:35:40;97555.72;;;7.64;100.00
20156;BME280;10238;49.556;10.956;2024-03-23T01:38:26;97552.19;;;7.81;100.00
20156;BME280;10238;49.556;10.956;2024-03-23T01:41:12;97552.91;;;7.91;100.00
20156;BME280;10238;49.556;10.956;2024-03-23T01:44:05;97546.31;;;7.95;100.00
20156;BME280;10238;49.556;10.956;2024-03-23T01:46:52;97546.81;;;7.98;100.00
20156;BME280;10238;49.556;10.956;2024-03-23T01:49:38;97550.66;;;8.04;100.00
20156;BME280;10238;49.556;10.956;2024-03-23T01:52:25;97546.72;;;8.08;100.00
20156;BME280;10238;49.556;10.956;2024-03-23T01:55:12;97539.44;;;8.10;100.00
20156;BME280;10238;49.556;10.956;2024-03-23T01:57:59;97537.28;;;8.13;100.00
20156;BME280;10238;49.556;10.956;2024-03-23T02:00:46;97532.84;;;8.14;100.00
20156;BME280;10238;49.556;10.956;2024-03-23T02:03:33;97529.66;;;8.10;100.00
20156;BME280;10238;49.556;10.956;2024-03-23T02:06:18;97521.88;;;8.09;100.00
20156;BME280;10238;49.556;10.956;2024-03-23T02:09:05;97514.94;;;8.08;100.00
20156;BME280;10238;49.556;10.956;2024-03-23T02:11:51;97507.84;;;8.08;100.00
20156;BME280;10238;49.556;10.956;2024-03-23T02:14:38;97506.50;;;8.04;100.00
20156;BME280;10238;49.556;10.956;2024-03-23T02:17:25;97501.19;;;8.04;100.00
20156;BME280;10238;49.556;10.956;2024-03-23T02:20:12;97487.16;;;8.04;100.00
20156;BME280;10238;49.556;10.956;2024-03-23T02:22:59;97482.66;;;8.04;100.00
20156;BME280;10238;49.556;10.956;2024-03-23T02:25:46;97481.84;;;8.04;100.00
20156;BME280;10238;49.556;10.956;2024-03-23T02:28:32;97473.75;;;8.05;100.00
20156;BME280;10238;49.556;10.956;2024-03-23T02:31:19;97462.19;;;8.06;100.00
20156;BME280;10238;49.556;10.956;2024-03-23T02:34:05;97452.91;;;8.10;100.00
20156;BME280;10238;49.556;10.956;2024-03-23T02:36:51;97452.09;;;8.10;100.00
20156;BME280;10238;49.556;10.956;2024-03-23T02:39:38;97451.59;;;8.06;100.00
20156;BME280;10238;49.556;10.956;2024-03-23T02:42:25;97444.50;;;8.07;100.00
20156;BME280;10238;49.556;10.956;2024-03-23T02:45:10;97454.59;;;8.11;100.00
20156;BME280;10238;49.556;10.956;2024-03-23T02:47:57;97450.50;;;8.25;100.00
20156;BME280;10238;49.556;10.956;2024-03-23T02:50:43;97441.59;;;8.26;100.00
20156;BME280;10238;49.556;10.956;2024-03-23T02:53:29;97429.47;;;8.23;100.00
20156;BME280;10238;49.556;10.956;2024-03-23T02:56:16;97426.03;;;8.23;100.00
20156;BME280;10238;49.556;10.956;2024-03-23T02:59:03;97420.75;;;8.23;100.00
20156;BME280;10238;49.556;10.956;2024-03-23T03:01:48;97404.84;;;8.23;100.00
20156;BME280;10238;49.556;10.956;2024-03-23T03:04:35;97409.44;;;8.21;100.00
20156;BME280;10238;49.556;10.956;2024-03-23T03:07:21;97402.69;;;8.26;100.00
20156;BME280;10238;49.556;10.956;2024-03-23T03:10:08;97407.50;;;8.31;100.00
20156;BME280;10238;49.556;10.956;2024-03-23T03:12:57;97402.19;;;8.31;100.00
20156;BME280;10238;49.556;10.956;2024-03-23T03:15:45;97400.56;;;8.30;100.00
20156;BME280;10238;49.556;10.956;2024-03-23T03:18:31;97394.94;;;8.33;100.00
20156;BME280;10238;49.556;10.956;2024-03-23T03:21:18;97391.28;;;8.34;100.00
20156;BME280;10238;49.556;10.956;2024-03-23T03:24:07;97378.03;;;8.34;100.00
20156;BME280;10238;49.556;10.956;2024-03-23T03:26:53;97378.72;;;8.36;100.00
20156;BME280;10238;49.556;10.956;2024-03-23T03:29:40;97378.41;;;8.39;100.00
20156;BME280;10238;49.556;10.956;2024-03-23T03:32:29;97368.94;;;8.36;100.00
20156;BME280;10238;49.556;10.956;2024-03-23T03:35:14;97348.09;;;8.33;100.00
20156;BME280;10238;49.556;10.956;2024-03-23T03:38:01;97347.91;;;8.35;100.00
20156;BME280;10238;49.556;10.956;2024-03-23T03:40:47;97338.50;;;8.40;100.00
20156;BME280;10238;49.556;10.956;2024-03-23T03:43:34;97324.28;;;8.41;100.00
20156;BME280;10238;49.556;10.956;2024-03-23T03:46:20;97321.78;;;8.40;100.00
20156;BME280;10238;49.556;10.956;2024-03-23T03:49:08;97321.13;;;8.38;100.00
20156;BME280;10238;49.556;10.956;2024-03-23T03:51:54;97316.31;;;8.33;100.00
20156;BME280;10238;49.556;10.956;2024-03-23T03:54:41;97308.06;;;8.28;100.00
20156;BME280;10238;49.556;10.956;2024-03-23T03:57:26;97292.00;;;8.22;100.00
20156;BME280;10238;49.556;10.956;2024-03-23T04:00:14;97285.69;;;8.15;100.00
20156;BME280;10238;49.556;10.956;2024-03-23T04:03:01;97293.66;;;8.07;100.00
20156;BME280;10238;49.556;10.956;2024-03-23T04:05:51;97298.25;;;7.97;100.00
20156;BME280;10238;49.556;10.956;2024-03-23T04:08:38;97292.78;;;7.90;100.00
20156;BME280;10238;49.556;10.956;2024-03-23T04:11:24;97285.69;;;7.83;100.00
20156;BME280;10238;49.556;10.956;2024-03-23T04:14:10;97288.97;;;7.77;100.00
20156;BME280;10238;49.556;10.956;2024-03-23T04:16:57;97276.41;;;7.71;100.00
20156;BME280;10238;49.556;10.956;2024-03-23T04:19:44;97276.41;;;7.63;100.00
20156;BME280;10238;49.556;10.956;2024-03-23T04:22:31;97283.97;;;7.58;100.00
20156;BME280;10238;49.556;10.956;2024-03-23T04:25:17;97275.72;;;7.53;100.00
20156;BME280;10238;49.556;10.956;2024-03-23T04:28:05;97281.50;;;7.48;100.00
20156;BME280;10238;49.556;10.956;2024-03-23T04:30:51;97281.66;;;7.47;100.00
20156;BME280;10238;49.556;10.956;2024-03-23T04:33:37;97291.22;;;7.48;100.00
20156;BME280;10238;49.556;10.956;2024-03-23T04:36:24;97290.91;;;7.43;100.00
20156;BME280;10238;49.556;10.956;2024-03-23T04:39:11;97298.47;;;7.46;100.00
20156;BME280;10238;49.556;10.956;2024-03-23T04:41:58;97297.34;;;7.48;100.00
20156;BME280;10238;49.556;10.956;2024-03-23T04:44:44;97302.81;;;7.55;100.00
20156;BME280;10238;49.556;10.956;2024-03-23T04:47:31;97258.22;;;7.76;100.00
20156;BME280;10238;49.556;10.956;2024-03-23T04:50:18;97260.22;;;7.98;100.00
20156;BME280;10238;49.556;10.956;2024-03-23T04:53:06;97258.75;;;7.95;100.00
20156;BME280;10238;49.556;10.956;2024-03-23T04:55:55;97266.16;;;8.00;100.00
20156;BME280;10238;49.556;10.956;2024-03-23T04:58:42;97278.56;;;8.07;100.00
20156;BME280;10238;49.556;10.956;2024-03-23T05:01:28;97271.81;;;8.13;100.00
20156;BME280;10238;49.556;10.956;2024-03-23T05:04:14;97269.16;;;8.21;100.00
20156;BME280;10238;49.556;10.956;2024-03-23T05:07:00;97267.00;;;8.32;100.00
20156;BME280;10238;49.556;10.956;2024-03-23T05:09:48;97260.22;;;8.38;100.00
20156;BME280;10238;49.556;10.956;2024-03-23T05:12:34;97246.97;;;8.38;100.00
20156;BME280;10238;49.556;10.956;2024-03-23T05:15:20;97247.16;;;8.36;100.00
20156;BME280;10238;49.556;10.956;2024-03-23T05:18:06;97231.09;;;8.38;100.00
20156;BME280;10238;49.556;10.956;2024-03-23T05:20:56;97235.88;;;8.42;100.00
20156;BME280;10238;49.556;10.956;2024-03-23T05:23:43;97230.41;;;8.52;100.00
20156;BME280;10238;49.556;10.956;2024-03-23T05:26:31;97218.47;;;8.64;100.00
20156;BME280;10238;49.556;10.956;2024-03-23T05:29:19;97222.72;;;8.73;100.00
20156;BME280;10238;49.556;10.956;2024-03-23T05:32:07;97232.19;;;8.75;100.00
20156;BME280;10238;49.556;10.956;2024-03-23T05:34:56;97229.81;;;8.80;100.00
20156;BME280;10238;49.556;10.956;2024-03-23T05:37:42;97225.03;;;8.84;100.00
20156;BME280;10238;49.556;10.956;2024-03-23T05:40:30;97229.97;;;8.87;100.00
20156;BME280;10238;49.556;10.956;2024-03-23T05:43:17;97225.97;;;8.91;100.00
20156;BME280;10238;49.556;10.956;2024-03-23T05:46:05;97219.16;;;8.97;100.00
20156;BME280;10238;49.556;10.956;2024-03-23T05:48:51;97212.03;;;8.97;100.00
20156;BME280;10238;49.556;10.956;2024-03-23T05:51:38;97221.81;;;8.97;100.00
20156;BME280;10238;49.556;10.956;2024-03-23T05:54:24;97221.63;;;8.98;100.00
20156;BME280;10238;49.556;10.956;2024-03-23T05:57:11;97208.38;;;8.98;100.00
20156;BME280;10238;49.556;10.956;2024-03-23T05:59:59;97231.44;;;8.98;100.00
20156;BME280;10238;49.556;10.956;2024-03-23T06:02:45;97225.63;;;9.02;100.00
20156;BME280;10238;49.556;10.956;2024-03-23T06:05:31;97215.97;;;9.09;100.00
20156;BME280;10238;49.556;10.956;2024-03-23T06:08:17;97217.09;;;9.15;100.00
20156;BME280;10238;49.556;10.956;2024-03-23T06:11:04;97220.59;;;9.15;100.00
20156;BME280;10238;49.556;10.956;2024-03-23T06:13:51;97208.63;;;9.19;100.00
20156;BME280;10238;49.556;10.956;2024-03-23T06:16:38;97193.72;;;9.18;100.00
20156;BME280;10238;49.556;10.956;2024-03-23T06:19:25;97200.66;;;9.19;100.00
20156;BME280;10238;49.556;10.956;2024-03-23T06:22:13;97198.00;;;9.19;100.00
20156;BME280;10238;49.556;10.956;2024-03-23T06:24:59;97212.13;;;9.20;100.00
20156;BME280;10238;49.556;10.956;2024-03-23T06:27:45;97211.22;;;9.27;100.00
20156;BME280;10238;49.556;10.956;2024-03-23T06:30:31;97233.94;;;9.30;100.00
20156;BME280;10238;49.556;10.956;2024-03-23T06:33:18;97232.56;;;9.34;100.00
20156;BME280;10238;49.556;10.956;2024-03-23T06:36:06;97219.13;;;9.35;100.00
20156;BME280;10238;49.556;10.956;2024-03-23T06:38:53;97207.84;;;9.41;100.00
20156;BME280;10238;49.556;10.956;2024-03-23T06:41:40;97201.47;;;9.50;100.00
20156;BME280;10238;49.556;10.956;2024-03-23T06:44:26;97201.47;;;9.50;100.00
20156;BME280;10238;49.556;10.956;2024-03-23T06:47:12;97203.06;;;9.59;100.00
20156;BME280;10238;49.556;10.956;2024-03-23T06:50:01;97209.59;;;9.71;100.00
20156;BME280;10238;49.556;10.956;2024-03-23T06:52:47;97208.31;;;9.67;100.00
20156;BME280;10238;49.556;10.956;2024-03-23T06:55:34;97210.88;;;9.75;100.00
20156;BME280;10238;49.556;10.956;2024-03-23T06:58:20;97209.19;;;9.82;100.00
20156;BME280;10238;49.556;10.956;2024-03-23T07:01:07;97217.78;;;9.84;100.00
20156;BME280;10238;49.556;10.956;2024-03-23T07:03:53;97218.38;;;9.94;100.00
20156;BME280;10238;49.556;10.956;2024-03-23T07:06:44;97207.03;;;10.00;100.00
20156;BME280;10238;49.556;10.956;2024-03-23T07:09:30;97214.66;;;10.03;100.00
20156;BME280;10238;49.556;10.956;2024-03-23T07:12:16;97206.19;;;10.08;100.00
20156;BME280;10238;49.556;10.956;2024-03-23T07:15:03;97217.81;;;10.07;100.00
20156;BME280;10238;49.556;10.956;2024-03-23T07:17:50;97210.69;;;10.07;100.00
20156;BME280;10238;49.556;10.956;2024-03-23T07:20:36;97219.63;;;10.06;100.00
20156;BME280;10238;49.556;10.956;2024-03-23T07:23:24;97216.16;;;10.06;100.00
20156;BME280;10238;49.556;10.956;2024-03-23T07:26:10;97212.66;;;10.05;100.00
20156;BME280;10238;49.556;10.956;2024-03-23T07:28:57;97230.41;;;10.05;100.00
20156;BME280;10238;49.556;10.956;2024-03-23T07:31:42;97232.25;;;10.04;100.00
20156;BME280;10238;49.556;10.956;2024-03-23T07:34:29;97254.28;;;10.05;100.00
20156;BME280;10238;49.556;10.956;2024-03-23T07:37:14;97246.50;;;10.03;100.00
20156;BME280;10238;49.556;10.956;2024-03-23T07:40:03;97247.69;;;10.01;100.00
20156;BME280;10238;49.556;10.956;2024-03-23T07:42:49;97252.16;;;10.00;100.00
20156;BME280;10238;49.556;10.956;2024-03-23T07:45:36;97256.66;;;10.00;100.00
20156;BME280;10238;49.556;10.956;2024-03-23T07:48:24;97277.91;;;10.00;100.00
20156;BME280;10238;49.556;10.956;2024-03-23T07:51:17;97279.72;;;9.99;100.00
20156;BME280;10238;49.556;10.956;2024-03-23T07:54:03;97295.84;;;9.98;100.00
20156;BME280;10238;49.556;10.956;2024-03-23T07:56:51;97304.97;;;9.95;100.00
20156;BME280;10238;49.556;10.956;2024-03-23T07:59:37;97316.75;;;9.93;100.00
20156;BME280;10238;49.556;10.956;2024-03-23T08:02:24;97308.34;;;9.89;100.00
20156;BME280;10238;49.556;10.956;2024-03-23T08:05:09;97313.66;;;9.89;100.00
20156;BME280;10238;49.556;10.956;2024-03-23T08:07:56;97322.97;;;9.85;100.00
20156;BME280;10238;49.556;10.956;2024-03-23T08:10:49;97328.97;;;9.79;100.00
20156;BME280;10238;49.556;10.956;2024-03-23T08:13:39;97354.69;;;9.79;100.00
20156;BME280;10238;49.556;10.956;2024-03-23T08:16:25;97364.00;;;9.75;100.00
20156;BME280;10238;49.556;10.956;2024-03-23T08:19:12;97368.19;;;9.61;100.00
20156;BME280;10238;49.556;10.956;2024-03-23T08:21:57;97368.53;;;9.58;100.00
20156;BME280;10238;49.556;10.956;2024-03-23T08:24:44;97377.00;;;9.54;100.00
20156;BME280;10238;49.556;10.956;2024-03-23T08:27:29;97383.78;;;9.56;100.00
20156;BME280;10238;49.556;10.956;2024-03-23T08:30:17;97375.97;;;9.63;100.00
20156;BME280;10238;49.556;10.956;2024-03-23T08:33:04;97399.03;;;9.62;100.00
20156;BME280;10238;49.556;10.956;2024-03-23T08:35:55;97410.81;;;9.60;100.00
20156;BME280;10238;49.556;10.956;2024-03-23T08:38:41;97420.59;;;9.59;100.00
20156;BME280;10238;49.556;10.956;2024-03-23T08:41:28;97427.41;;;9.62;100.00
20156;BME280;10238;49.556;10.956;2024-03-23T08:44:13;97451.72;;;9.73;100.00
20156;BME280;10238;49.556;10.956;2024-03-23T08:47:01;97462.31;;;9.81;100.00
20156;BME280;10238;49.556;10.956;2024-03-23T08:49:47;97473.94;;;9.80;100.00
20156;BME280;10238;49.556;10.956;2024-03-23T08:52:33;97493.22;;;9.66;100.00
20156;BME280;10238;49.556;10.956;2024-03-23T08:55:19;97491.13;;;9.46;100.00
20156;BME280;10238;49.556;10.956;2024-03-23T08:58:05;97500.25;;;9.35;100.00
20156;BME280;10238;49.556;10.956;2024-03-23T09:00:55;97505.53;;;9.27;100.00
20156;BME280;10238;49.556;10.956;2024-03-23T09:03:44;97531.25;;;9.19;100.00
20156;BME280;10238;49.556;10.956;2024-03-23T09:06:30;97537.72;;;9.16;100.00
20156;BME280;10238;49.556;10.956;2024-03-23T09:09:16;97527.94;;;9.09;100.00
20156;BME280;10238;49.556;10.956;2024-03-23T09:12:03;97534.41;;;9.06;100.00
20156;BME280;10238;49.556;10.956;2024-03-23T09:14:50;97554.94;;;9.04;100.00
20156;BME280;10238;49.556;10.956;2024-03-23T09:17:35;97551.97;;;8.99;100.00
20156;BME280;10238;49.556;10.956;2024-03-23T09:20:23;97559.56;;;8.94;100.00
20156;BME280;10238;49.556;10.956;2024-03-23T09:23:10;97578.47;;;8.99;100.00
20156;BME280;10238;49.556;10.956;2024-03-23T09:25:55;97576.47;;;9.17;100.00
20156;BME280;10238;49.556;10.956;2024-03-23T09:28:42;97576.16;;;9.20;100.00
20156;BME280;10238;49.556;10.956;2024-03-23T09:31:28;97581.31;;;9.30;100.00
20156;BME280;10238;49.556;10.956;2024-03-23T09:34:16;97575.81;;;9.55;100.00
20156;BME280;10238;49.556;10.956;2024-03-23T09:37:03;97589.22;;;9.70;100.00
20156;BME280;10238;49.556;10.956;2024-03-23T09:39:50;97576.75;;;9.78;100.00
20156;BME280;10238;49.556;10.956;2024-03-23T09:42:36;97576.25;;;9.91;100.00
20156;BME280;10238;49.556;10.956;2024-03-23T09:45:27;97579.22;;;9.96;100.00
20156;BME280;10238;49.556;10.956;2024-03-23T09:48:13;97572.25;;;10.11;100.00
20156;BME280;10238;49.556;10.956;2024-03-23T09:51:02;97581.34;;;10.24;100.00
20156;BME280;10238;49.556;10.956;2024-03-23T09:53:50;97593.88;;;10.38;100.00
20156;BME280;10238;49.556;10.956;2024-03-23T09:56:37;97593.25;;;10.36;100.00
20156;BME280;10238;49.556;10.956;2024-03-23T09:59:23;97610.50;;;10.32;100.00
20156;BME280;10238;49.556;10.956;2024-03-23T10:02:11;97607.84;;;10.32;100.00
20156;BME280;10238;49.556;10.956;2024-03-23T10:05:02;97624.13;;;10.29;100.00
20156;BME280;10238;49.556;10.956;2024-03-23T10:07:49;97610.88;;;10.21;100.00
20156;BME280;10238;49.556;10.956;2024-03-23T10:10:36;97619.03;;;10.20;100.00
20156;BME280;10238;49.556;10.956;2024-03-23T10:13:27;97617.22;;;10.12;100.00
20156;BME280;10238;49.556;10.956;2024-03-23T10:16:22;97636.31;;;10.08;100.00
20156;BME280;10238;49.556;10.956;2024-03-23T10:19:09;97634.97;;;10.04;100.00
20156;BME280;10238;49.556;10.956;2024-03-23T10:21:56;97651.41;;;9.91;100.00
20156;BME280;10238;49.556;10.956;2024-03-23T10:24:43;97649.28;;;9.87;100.00
20156;BME280;10238;49.556;10.956;2024-03-23T10:27:30;97635.16;;;9.86;100.00
20156;BME280;10238;49.556;10.956;2024-03-23T10:30:17;97640.78;;;9.83;100.00
20156;BME280;10238;49.556;10.956;2024-03-23T10:33:10;97642.13;;;9.71;100.00
20156;BME280;10238;49.556;10.956;2024-03-23T10:35:57;97647.09;;;9.74;100.00
20156;BME280;10238;49.556;10.956;2024-03-23T10:38:44;97648.75;;;9.83;100.00
20156;BME280;10238;49.556;10.956;2024-03-23T10:41:32;97647.94;;;9.91;100.00
20156;BME280;10238;49.556;10.956;2024-03-23T10:44:20;97644.09;;;9.93;100.00
20156;BME280;10238;49.556;10.956;2024-03-23T10:47:08;97649.06;;;9.96;100.00
20156;BME280;10238;49.556;10.956;2024-03-23T10:49:55;97647.59;;;9.86;100.00
20156;BME280;10238;49.556;10.956;2024-03-23T10:52:47;97649.44;;;9.85;100.00
20156;BME280;10238;49.556;10.956;2024-03-23T10:55:33;97658.72;;;9.89;100.00
20156;BME280;10238;49.556;10.956;2024-03-23T10:58:26;97652.91;;;9.86;100.00
20156;BME280;10238;49.556;10.956;2024-03-23T11:01:14;97652.41;;;9.82;100.00
20156;BME280;10238;49.556;10.956;2024-03-23T11:04:01;97653.41;;;9.89;100.00
20156;BME280;10238;49.556;10.956;2024-03-23T11:06:47;97660.38;;;9.98;100.00
20156;BME280;10238;49.556;10.956;2024-03-23T11:09:41;97655.38;;;10.27;100.00
20156;BME280;10238;49.556;10.956;2024-03-23T11:12:30;97649.50;;;10.48;100.00
20156;BME280;10238;49.556;10.956;2024-03-23T11:15:20;97643.63;;;10.60;100.00
20156;BME280;10238;49.556;10.956;2024-03-23T11:18:09;97639.34;;;10.51;100.00
20156;BME280;10238;49.556;10.956;2024-03-23T11:20:57;97649.97;;;10.51;100.00
20156;BME280;10238;49.556;10.956;2024-03-23T11:23:42;97653.81;;;10.49;100.00
20156;BME280;10238;49.556;10.956;2024-03-23T11:26:29;97648.31;;;10.50;100.00
20156;BME280;10238;49.556;10.956;2024-03-23T11:29:17;97656.91;;;10.68;100.00
20156;BME280;10238;49.556;10.956;2024-03-23T11:32:05;97643.31;;;10.94;100.00
20156;BME280;10238;49.556;10.956;2024-03-23T11:34:56;97633.31;;;11.27;100.00
20156;BME280;10238;49.556;10.956;2024-03-23T11:37:43;97640.75;;;11.54;100.00
20156;BME280;10238;49.556;10.956;2024-03-23T11:40:29;97637.53;;;11.66;100.00
20156;BME280;10238;49.556;10.956;2024-03-23T11:43:18;97642.19;;;11.64;100.00
20156;BME280;10238;49.556;10.956;2024-03-23T11:46:05;97646.91;;;11.62;100.00
20156;BME280;10238;49.556;10.956;2024-03-23T11:48:53;97650.75;;;11.74;100.00
20156;BME280;10238;49.556;10.956;2024-03-23T11:51:41;97651.84;;;12.02;100.00
20156;BME280;10238;49.556;10.956;2024-03-23T11:54:27;97653.22;;;12.35;100.00
20156;BME280;10238;49.556;10.956;2024-03-23T11:57:16;97649.06;;;12.47;100.00
20156;BME280;10238;49.556;10.956;2024-03-23T12:00:02;97650.72;;;12.48;100.00
20156;BME280;10238;49.556;10.956;2024-03-23T12:03:06;97650.53;;;12.50;100.00
20156;BME280;10238;49.556;10.956;2024-03-23T12:05:53;97642.44;;;12.58;100.00
20156;BME280;10238;49.556;10.956;2024-03-23T12:08:42;97634.34;;;12.66;100.00
20156;BME280;10238;49.556;10.956;2024-03-23T12:11:28;97649.50;;;12.80;99.31
20156;BME280;10238;49.556;10.956;2024-03-23T12:14:15;97622.75;;;13.02;96.09
20156;BME280;10238;49.556;10.956;2024-03-23T12:17:11;97624.25;;;13.26;91.52
20156;BME280;10238;49.556;10.956;2024-03-23T12:19:58;97625.25;;;13.46;90.08
20156;BME280;10238;49.556;10.956;2024-03-23T12:22:44;97635.94;;;13.67;89.39
20156;BME280;10238;49.556;10.956;2024-03-23T12:25:34;97632.28;;;13.96;85.94
20156;BME280;10238;49.556;10.956;2024-03-23T12:28:19;97633.94;;;13.97;85.84
20156;BME280;10238;49.556;10.956;2024-03-23T12:31:06;97621.03;;;14.00;85.73
20156;BME280;10238;49.556;10.956;2024-03-23T12:33:53;97627.22;;;14.28;83.02
20156;BME280;10238;49.556;10.956;2024-03-23T12:36:39;97616.63;;;14.14;80.64
20156;BME280;10238;49.556;10.956;2024-03-23T12:39:25;97604.50;;;13.90;77.72
20156;BME280;10238;49.556;10.956;2024-03-23T12:42:13;97614.31;;;13.62;75.87
20156;BME280;10238;49.556;10.956;2024-03-23T12:44:59;97614.31;;;13.62;82.25
20156;BME280;10238;49.556;10.956;2024-03-23T12:47:45;97607.56;;;13.87;81.30
20156;BME280;10238;49.556;10.956;2024-03-23T12:50:32;97608.81;;;13.91;81.10
20156;BME280;10238;49.556;10.956;2024-03-23T12:53:17;97615.66;;;13.73;84.86
20156;BME280;10238;49.556;10.956;2024-03-23T12:56:04;97611.66;;;13.62;82.88
20156;BME280;10238;49.556;10.956;2024-03-23T12:58:51;97598.91;;;13.64;83.44
20156;BME280;10238;49.556;10.956;2024-03-23T13:01:39;97604.06;;;13.66;79.24
20156;BME280;10238;49.556;10.956;2024-03-23T13:04:25;97603.94;;;13.53;78.93
20156;BME280;10238;49.556;10.956;2024-03-23T13:07:12;97600.22;;;13.47;77.23
20156;BME280;10238;49.556;10.956;2024-03-23T13:09:58;97604.59;;;13.34;76.39
20156;BME280;10238;49.556;10.956;2024-03-23T13:12:44;97608.53;;;13.17;77.57
20156;BME280;10238;49.556;10.956;2024-03-23T13:15:32;97600.66;;;13.09;78.28
20156;BME280;10238;49.556;10.956;2024-03-23T13:18:18;97603.94;;;12.96;74.86
20156;BME280;10238;49.556;10.956;2024-03-23T13:21:04;97594.88;;;12.90;75.82
20156;BME280;10238;49.556;10.956;2024-03-23T13:23:51;97602.91;;;12.97;72.59
20156;BME280;10238;49.556;10.956;2024-03-23T13:26:37;97590.41;;;13.12;74.89
20156;BME280;10238;49.556;10.956;2024-03-23T13:29:24;97588.53;;;13.27;73.15
20156;BME280;10238;49.556;10.956;2024-03-23T13:32:11;97582.97;;;13.50;75.69
20156;BME280;10238;49.556;10.956;2024-03-23T13:34:57;97582.66;;;13.59;69.99
20156;BME280;10238;49.556;10.956;2024-03-23T13:37:43;97578.69;;;13.76;72.02
20156;BME280;10238;49.556;10.956;2024-03-23T13:40:30;97567.69;;;13.86;69.37
20156;BME280;10238;49.556;10.956;2024-03-23T13:43:16;97569.94;;;14.16;72.68
20156;BME280;10238;49.556;10.956;2024-03-23T13:46:02;97561.28;;;14.42;69.09
20156;BME280;10238;49.556;10.956;2024-03-23T13:48:50;97556.47;;;14.71;70.51
20156;BME280;10238;49.556;10.956;2024-03-23T13:51:36;97556.56;;;14.97;69.11
20156;BME280;10238;49.556;10.956;2024-03-23T13:54:22;97552.88;;;14.98;67.74
20156;BME280;10238;49.556;10.956;2024-03-23T13:57:09;97543.41;;;15.09;66.53
20156;BME280;10238;49.556;10.956;2024-03-23T13:59:56;97551.00;;;14.92;66.12
20156;BME280;10238;49.556;10.956;2024-03-23T14:02:42;97550.16;;;14.85;66.81
20156;BME280;10238;49.556;10.956;2024-03-23T14:05:30;97550.03;;;14.59;67.05
20156;BME280;10238;49.556;10.956;2024-03-23T14:08:15;97555.31;;;14.40;67.47
20156;BME280;10238;49.556;10.956;2024-03-23T14:11:03;97550.00;;;14.12;67.43
20156;BME280;10238;49.556;10.956;2024-03-23T14:13:49;97539.34;;;13.91;68.39
20156;BME280;10238;49.556;10.956;2024-03-23T14:16:36;97546.63;;;13.76;68.51
20156;BME280;10238;49.556;10.956;2024-03-23T14:19:22;97556.34;;;13.56;67.98
20156;BME280;10238;49.556;10.956;2024-03-23T14:22:09;97551.19;;;13.34;70.41
20156;BME280;10238;49.556;10.956;2024-03-23T14:24:56;97544.63;;;13.57;70.74
20156;BME280;10238;49.556;10.956;2024-03-23T14:27:44;97547.66;;;13.75;70.20
20156;BME280;10238;49.556;10.956;2024-03-23T14:30:31;97542.16;;;13.83;70.89
20156;BME280;10238;49.556;10.956;2024-03-23T14:33:18;97536.31;;;14.01;73.15
20156;BME280;10238;49.556;10.956;2024-03-23T14:36:06;97544.03;;;14.17;75.00
20156;BME280;10238;49.556;10.956;2024-03-23T14:38:52;97531.75;;;14.22;74.50
20156;BME280;10238;49.556;10.956;2024-03-23T14:41:39;97540.84;;;14.28;73.99
20156;BME280;10238;49.556;10.956;2024-03-23T14:44:26;97526.28;;;14.37;74.03
20156;BME280;10238;49.556;10.956;2024-03-23T14:47:13;97541.06;;;14.05;72.97
20156;BME280;10238;49.556;10.956;2024-03-23T14:50:00;97540.88;;;13.73;72.67
20156;BME280;10238;49.556;10.956;2024-03-23T14:52:46;97539.44;;;13.49;72.67
20156;BME280;10238;49.556;10.956;2024-03-23T14:55:36;97553.94;;;13.19;73.09
20156;BME280;10238;49.556;10.956;2024-03-23T14:58:21;97563.13;;;12.81;74.16
20156;BME280;10238;49.556;10.956;2024-03-23T15:01:10;97563.63;;;12.70;77.18
20156;BME280;10238;49.556;10.956;2024-03-23T15:03:55;97580.78;;;12.46;79.95
20156;BME280;10238;49.556;10.956;2024-03-23T15:06:41;97611.19;;;12.23;82.86
20156;BME280;10238;49.556;10.956;2024-03-23T15:09:27;97615.03;;;11.69;89.88
20156;BME280;10238;49.556;10.956;2024-03-23T15:12:15;97626.28;;;11.34;97.92
20156;BME280;10238;49.556;10.956;2024-03-23T15:15:02;97638.94;;;11.01;100.00
20156;BME280;10238;49.556;10.956;2024-03-23T15:17:48;97632.09;;;10.37;100.00
20156;BME280;10238;49.556;10.956;2024-03-23T15:20:36;97635.47;;;10.15;100.00
20156;BME280;10238;49.556;10.956;2024-03-23T15:23:22;97626.66;;;10.15;100.00